createdAt,value
2023-05-12T00:01:50.329Z,67.58
2023-05-12T00:04:17.471Z,67.70
2023-05-12T00:06:44.513Z,68.16
2023-05-12T00:09:11.601Z,68.28
2023-05-12T00:11:38.630Z,68.49
2023-05-12T00:14:06.661Z,68.81
2023-05-12T00:16:33.770Z,68.79
2023-05-12T00:19:01.498Z,68.62
2023-05-12T00:21:28.599Z,67.65
2023-05-12T00:23:55.949Z,67.03
2023-05-12T00:26:22.959Z,66.77
2023-05-12T00:28:50.187Z,66.35
2023-05-12T00:31:17.502Z,66.28
2023-05-12T00:33:44.584Z,66.31
2023-05-12T00:36:11.618Z,65.58
2023-05-12T00:38:38.963Z,65.65
2023-05-12T00:41:06.038Z,65.95
2023-05-12T00:43:33.795Z,66.88
2023-05-12T00:46:02.924Z,67.42
2023-05-12T00:48:29.906Z,68.01
2023-05-12T00:50:57.942Z,67.76
2023-05-12T00:53:29.041Z,67.02
2023-05-12T00:55:59.897Z,67.32
2023-05-12T00:58:27.548Z,67.04
2023-05-12T01:00:54.846Z,67.05
2023-05-12T01:03:22.295Z,66.49
2023-05-12T01:05:55.300Z,67.25
2023-05-12T01:08:23.516Z,67.90
2023-05-12T01:10:51.223Z,68.40
2023-05-12T01:13:19.539Z,68.24
2023-05-12T01:15:48.612Z,67.93
2023-05-12T01:18:16.401Z,68.49
2023-05-12T01:20:44.803Z,69.09
2023-05-12T01:23:14.450Z,70.09
2023-05-12T01:25:47.547Z,71.25
2023-05-12T01:28:15.961Z,71.93
2023-05-12T01:30:44.115Z,72.92
2023-05-12T01:33:13.593Z,73.91
2023-05-12T01:35:46.429Z,74.40
2023-05-12T01:38:13.679Z,75.01
2023-05-12T01:40:41.702Z,75.34
2023-05-12T01:43:09.089Z,75.77
2023-05-12T01:45:36.700Z,75.77
2023-05-12T01:48:04.164Z,75.88
2023-05-12T01:50:31.387Z,76.07
2023-05-12T01:52:59.553Z,76.06
2023-05-12T01:55:27.785Z,76.09
2023-05-12T01:57:58.674Z,76.15
2023-05-12T02:00:27.364Z,76.74
2023-05-12T02:02:57.479Z,77.18
2023-05-12T02:05:24.775Z,77.67
2023-05-12T02:07:52.780Z,78.18
2023-05-12T02:10:20.816Z,78.27
2023-05-12T02:12:49.360Z,78.60
2023-05-12T02:15:17.776Z,78.32
2023-05-12T02:17:47.285Z,78.42
2023-05-12T02:20:17.384Z,78.29
2023-05-12T02:22:44.678Z,78.37
2023-05-12T02:25:12.477Z,78.11
2023-05-12T02:27:40.059Z,78.35
2023-05-12T02:30:08.546Z,78.24
2023-05-12T02:32:36.660Z,78.33
2023-05-12T02:35:05.151Z,77.96
2023-05-12T02:37:32.480Z,77.82
2023-05-12T02:39:59.806Z,78.00
2023-05-12T02:42:31.131Z,77.77
2023-05-12T02:44:58.635Z,78.03
2023-05-12T02:47:25.829Z,77.97
2023-05-12T02:49:55.664Z,77.97
2023-05-12T02:52:22.812Z,78.18
2023-05-12T02:54:50.181Z,77.62
2023-05-12T02:57:17.306Z,77.39
2023-05-12T02:59:44.474Z,76.85
2023-05-12T03:02:11.858Z,76.45
2023-05-12T03:04:39.457Z,76.01
2023-05-12T03:07:06.457Z,75.56
2023-05-12T03:09:34.486Z,75.16
2023-05-12T03:12:01.576Z,74.51
2023-05-12T03:14:28.809Z,73.39
2023-05-12T03:16:55.783Z,72.74
2023-05-12T03:19:22.764Z,72.02
2023-05-12T03:21:50.419Z,72.00
2023-05-12T03:24:17.480Z,71.34
2023-05-12T03:26:44.562Z,70.82
2023-05-12T03:29:11.555Z,70.27
2023-05-12T03:31:38.599Z,70.04
2023-05-12T03:34:05.969Z,69.81
2023-05-12T03:36:32.885Z,68.94
2023-05-12T03:38:59.905Z,68.51
2023-05-12T03:41:26.894Z,67.83
2023-05-12T03:43:53.980Z,67.18
2023-05-12T03:46:21.303Z,66.26
2023-05-12T03:48:48.307Z,65.44
2023-05-12T03:51:15.344Z,65.17
2023-05-12T03:53:46.665Z,64.43
2023-05-12T03:56:15.709Z,63.13
2023-05-12T03:58:43.549Z,62.55
2023-05-12T04:01:10.582Z,62.19
2023-05-12T04:03:37.792Z,59.23
2023-05-12T04:06:23.788Z,57.14
2023-05-12T04:08:50.789Z,56.79
2023-05-12T04:11:17.858Z,56.40
2023-05-12T04:13:44.927Z,54.44
2023-05-12T04:16:13.762Z,53.94
2023-05-12T04:18:40.979Z,53.18
2023-05-12T04:21:08.466Z,52.43
2023-05-12T04:23:54.284Z,52.22
2023-05-12T04:26:24.451Z,51.80
2023-05-12T04:28:52.057Z,51.52
2023-05-12T04:31:19.561Z,51.24
2023-05-12T04:33:48.244Z,51.11
2023-05-12T04:36:15.740Z,50.92
2023-05-12T04:38:43.092Z,50.84
2023-05-12T04:41:11.021Z,50.32
2023-05-12T04:46:08.425Z,49.94
2023-05-12T04:48:54.255Z,49.90
2023-05-12T04:51:21.269Z,49.71
2023-05-12T04:53:48.364Z,49.65
2023-05-12T04:56:15.707Z,49.80
2023-05-12T04:58:45.185Z,49.72
2023-05-12T05:01:31.228Z,49.57
2023-05-12T05:03:58.628Z,49.02
2023-05-12T05:06:25.820Z,49.08
2023-05-12T05:08:53.778Z,48.70
2023-05-12T05:11:22.467Z,48.19
2023-05-12T05:13:50.450Z,47.92
2023-05-12T05:16:18.237Z,47.50
2023-05-12T05:18:48.008Z,47.01
2023-05-12T05:21:15.458Z,46.53
2023-05-12T05:23:42.923Z,46.33
2023-05-12T05:26:10.376Z,46.49
2023-05-12T05:28:41.783Z,45.53
2023-05-12T05:31:08.951Z,45.52
2023-05-12T05:33:36.006Z,45.92
2023-05-12T05:36:06.970Z,45.80
2023-05-12T05:38:37.878Z,45.68
2023-05-12T05:41:05.906Z,45.28
2023-05-12T05:43:41.599Z,44.75
2023-05-12T05:46:11.567Z,44.50
2023-05-12T05:48:38.926Z,44.14
2023-05-12T05:51:11.546Z,43.69
2023-05-12T05:53:42.494Z,43.80
2023-05-12T05:56:13.618Z,43.40
2023-05-12T05:58:40.794Z,43.32
2023-05-12T06:01:08.000Z,43.43
2023-05-12T06:03:36.595Z,43.25
2023-05-12T06:06:07.303Z,43.12
2023-05-12T06:08:34.595Z,43.57
2023-05-12T06:11:03.507Z,42.75
2023-05-12T06:13:32.485Z,43.03
2023-05-12T06:16:01.109Z,43.37
2023-05-12T06:18:28.456Z,43.18
2023-05-12T06:20:55.941Z,43.03
2023-05-12T06:23:23.043Z,42.81
2023-05-12T06:25:50.722Z,42.04
2023-05-12T06:28:18.198Z,40.37
2023-05-12T06:30:49.082Z,39.79
2023-05-12T06:33:18.081Z,39.52
2023-05-12T06:35:45.197Z,39.60
2023-05-12T06:38:12.781Z,38.48
2023-05-12T06:40:46.291Z,38.57
2023-05-12T06:43:14.773Z,37.85
2023-05-12T06:45:52.945Z,37.78
2023-05-12T06:48:20.166Z,38.00
2023-05-12T06:50:47.242Z,37.64
2023-05-12T06:53:17.872Z,37.97
2023-05-12T06:55:47.891Z,37.51
2023-05-12T06:58:22.367Z,36.90
2023-05-12T07:00:52.270Z,35.43
2023-05-12T07:03:22.058Z,34.94
2023-05-12T07:05:49.542Z,33.81
2023-05-12T07:08:17.158Z,31.75
2023-05-12T07:10:45.218Z,31.92
2023-05-12T07:13:12.359Z,32.09
2023-05-12T07:15:39.540Z,31.57
2023-05-12T07:18:06.967Z,31.47
2023-05-12T07:20:34.148Z,31.69
2023-05-12T07:23:01.232Z,30.66
2023-05-12T07:25:28.522Z,29.89
2023-05-12T07:27:56.240Z,29.72
2023-05-12T07:30:23.267Z,29.10
2023-05-12T07:32:50.516Z,27.92
2023-05-12T07:35:18.249Z,28.31
2023-05-12T07:37:45.615Z,28.65
2023-05-12T07:40:13.044Z,27.38
2023-05-12T07:42:40.105Z,27.20
2023-05-12T07:45:07.860Z,27.38
2023-05-12T07:47:35.028Z,25.90
2023-05-12T07:50:02.328Z,25.70
2023-05-12T07:52:31.862Z,26.69
2023-05-12T07:54:58.969Z,26.02
2023-05-12T07:57:25.998Z,26.46
2023-05-12T07:59:53.008Z,26.34
2023-05-12T08:02:22.269Z,26.17
2023-05-12T08:04:50.873Z,26.53
2023-05-12T08:07:18.318Z,26.29
2023-05-12T08:09:45.391Z,26.14
2023-05-12T08:12:12.522Z,26.70
2023-05-12T08:14:39.644Z,26.59
2023-05-12T08:17:11.834Z,26.91
2023-05-12T08:19:39.057Z,25.69
2023-05-12T08:22:09.154Z,25.33
2023-05-12T08:24:36.894Z,24.16
2023-05-12T08:27:04.200Z,24.77
2023-05-12T08:29:31.337Z,24.99
2023-05-12T08:31:58.641Z,24.56
2023-05-12T08:34:25.941Z,24.37
2023-05-12T08:36:53.837Z,23.69
2023-05-12T08:39:21.522Z,23.81
2023-05-12T08:41:48.594Z,23.20
2023-05-12T08:44:16.116Z,23.59
2023-05-12T08:46:43.453Z,23.32
2023-05-12T08:49:16.597Z,23.95
2023-05-12T08:51:57.214Z,24.29
2023-05-12T08:54:33.463Z,23.98
2023-05-12T08:59:35.374Z,22.94
2023-05-12T09:02:04.543Z,22.33
2023-05-12T09:04:34.515Z,21.83
2023-05-12T09:07:01.694Z,21.22
2023-05-12T09:09:30.237Z,21.05
2023-05-12T09:11:59.461Z,20.50
2023-05-12T09:14:27.505Z,20.20
2023-05-12T09:17:00.416Z,19.64
2023-05-12T09:19:28.457Z,19.89
2023-05-12T09:21:58.709Z,19.20
2023-05-12T09:24:36.603Z,18.79
2023-05-12T09:27:04.587Z,18.32
2023-05-12T09:29:45.143Z,18.81
2023-05-12T09:32:19.230Z,18.54
2023-05-12T09:34:46.388Z,18.63
2023-05-12T09:37:15.502Z,17.65
2023-05-12T09:39:44.484Z,17.29
2023-05-12T09:42:12.801Z,17.47
2023-05-12T09:44:41.312Z,16.98
2023-05-12T09:47:10.612Z,16.99
2023-05-12T09:49:38.500Z,16.80
2023-05-12T09:52:06.286Z,17.31
2023-05-12T09:54:34.659Z,17.40
2023-05-12T09:57:11.094Z,17.43
2023-05-12T09:59:39.692Z,17.79
2023-05-12T10:02:09.557Z,18.76
2023-05-12T10:04:45.804Z,18.82
2023-05-12T10:07:13.654Z,19.82
2023-05-12T10:09:42.539Z,18.55
2023-05-12T10:12:09.931Z,17.97
2023-05-12T10:14:38.372Z,16.75
2023-05-12T10:17:05.863Z,18.31
2023-05-12T10:19:33.112Z,19.21
2023-05-12T10:22:00.870Z,19.52
2023-05-12T10:24:33.306Z,19.45
2023-05-12T10:27:01.553Z,19.68
2023-05-12T10:29:30.574Z,19.56
2023-05-12T10:31:58.216Z,18.44
2023-05-12T10:34:31.301Z,18.99
2023-05-12T10:37:09.225Z,19.45
2023-05-12T10:39:38.606Z,20.15
2023-05-12T10:42:11.511Z,20.05
2023-05-12T10:44:52.105Z,17.91
2023-05-12T10:47:19.747Z,17.56
2023-05-12T10:49:46.949Z,17.49
2023-05-12T10:52:14.131Z,17.68
2023-05-12T10:54:45.551Z,17.79
2023-05-12T10:57:17.896Z,19.45
2023-05-12T10:59:58.801Z,20.00
2023-05-12T11:02:34.453Z,20.54
2023-05-12T11:05:13.126Z,20.91
2023-05-12T11:07:41.844Z,21.33
2023-05-12T11:10:10.585Z,21.66
2023-05-12T11:12:38.129Z,21.26
2023-05-12T11:15:06.920Z,21.98
2023-05-12T11:17:34.503Z,22.38
2023-05-12T11:20:04.550Z,22.41
2023-05-12T11:22:34.043Z,22.12
2023-05-12T11:25:10.200Z,21.45
2023-05-12T11:27:42.648Z,22.14
2023-05-12T11:30:11.251Z,22.86
2023-05-12T11:32:41.695Z,22.87
2023-05-12T11:35:16.615Z,23.19
2023-05-12T11:37:46.900Z,23.02
2023-05-12T11:40:22.016Z,22.87
2023-05-12T11:42:56.050Z,22.90
2023-05-12T11:45:49.004Z,22.96
2023-05-12T11:48:18.929Z,22.58
2023-05-12T11:51:18.696Z,20.06
2023-05-12T11:53:46.874Z,17.89
2023-05-12T11:56:22.283Z,17.43
2023-05-12T11:58:55.100Z,16.43
2023-05-12T12:01:23.279Z,16.87
2023-05-12T12:03:52.212Z,16.45
2023-05-12T12:06:25.387Z,17.33
2023-05-12T12:08:52.616Z,16.24
2023-05-12T12:11:21.461Z,15.84
2023-05-12T12:13:56.455Z,14.87
2023-05-12T12:16:26.614Z,14.71
2023-05-12T12:18:57.278Z,15.08
2023-05-12T12:21:27.426Z,14.68
2023-05-12T12:23:59.968Z,14.38
2023-05-12T12:26:28.024Z,14.41
2023-05-12T12:28:55.123Z,15.41
2023-05-12T12:31:22.336Z,15.59
2023-05-12T12:33:49.540Z,17.17
2023-05-12T12:36:16.855Z,16.74
2023-05-12T12:38:43.976Z,16.92
2023-05-12T12:41:11.079Z,17.08
2023-05-12T12:43:38.541Z,16.02
2023-05-12T12:46:06.249Z,16.01
2023-05-12T12:48:37.097Z,16.15
2023-05-12T12:51:04.406Z,16.65
2023-05-12T12:53:31.812Z,17.29
2023-05-12T12:56:03.116Z,17.08
2023-05-12T12:58:31.361Z,16.25
2023-05-12T13:01:01.759Z,15.90
2023-05-12T13:03:32.233Z,16.62
2023-05-12T13:06:02.081Z,16.45
2023-05-12T13:08:32.254Z,16.67
2023-05-12T13:11:00.508Z,16.08
2023-05-12T13:13:27.927Z,16.07
2023-05-12T13:15:55.289Z,17.21
2023-05-12T13:18:25.417Z,16.78
2023-05-12T13:20:53.073Z,16.74
2023-05-12T13:23:20.628Z,15.91
2023-05-12T13:25:52.924Z,16.68
2023-05-12T13:28:19.936Z,17.22
2023-05-12T13:30:47.173Z,17.20
2023-05-12T13:33:17.497Z,16.92
2023-05-12T13:35:55.273Z,16.75
2023-05-12T13:38:23.325Z,16.79
2023-05-12T13:40:51.291Z,17.06
2023-05-12T13:43:18.613Z,16.86
2023-05-12T13:45:45.928Z,17.40
2023-05-12T13:48:18.157Z,17.03
2023-05-12T13:50:49.151Z,17.61
2023-05-12T13:53:16.452Z,17.70
2023-05-12T13:55:44.693Z,18.28
2023-05-12T13:58:14.277Z,17.39
2023-05-12T14:00:41.598Z,16.44
2023-05-12T14:03:08.843Z,15.31
2023-05-12T14:05:36.351Z,17.10
2023-05-12T14:08:04.014Z,18.87
2023-05-12T14:10:32.690Z,19.88
2023-05-12T14:12:59.999Z,18.14
2023-05-12T14:15:40.141Z,16.07
2023-05-12T14:18:12.621Z,15.38
2023-05-12T14:20:40.882Z,16.55
2023-05-12T14:23:08.013Z,15.74
2023-05-12T14:25:35.058Z,14.82
2023-05-12T14:28:02.290Z,14.50
2023-05-12T14:30:30.174Z,14.96
2023-05-12T14:32:57.369Z,14.99
2023-05-12T14:35:27.804Z,16.63
2023-05-12T14:37:55.759Z,18.04
2023-05-12T14:40:23.583Z,17.62
2023-05-12T14:42:51.142Z,15.67
2023-05-12T14:45:18.500Z,15.39
2023-05-12T14:47:45.785Z,17.10
2023-05-12T14:50:13.754Z,16.71
2023-05-12T14:52:40.883Z,15.30
2023-05-12T14:55:13.718Z,15.16
2023-05-12T14:57:48.113Z,14.63
2023-05-12T15:00:18.571Z,15.57
2023-05-12T15:02:45.767Z,15.43
2023-05-12T15:05:17.167Z,14.14
2023-05-12T15:07:44.435Z,15.22
2023-05-12T15:10:11.754Z,15.18
2023-05-12T15:12:39.044Z,15.19
2023-05-12T15:15:14.035Z,14.05
2023-05-12T15:17:41.037Z,13.73
2023-05-12T15:20:10.068Z,14.91
2023-05-12T15:22:46.602Z,15.87
2023-05-12T15:25:16.867Z,17.04
2023-05-12T15:27:44.116Z,16.97
2023-05-12T15:30:11.833Z,16.19
2023-05-12T15:32:41.296Z,16.56
2023-05-12T15:35:09.928Z,16.85
2023-05-12T15:37:37.001Z,16.01
2023-05-12T15:40:04.319Z,15.05
2023-05-12T15:42:33.083Z,14.94
2023-05-12T15:45:01.236Z,15.22
2023-05-12T15:47:28.717Z,16.50
2023-05-12T15:49:55.841Z,17.87
2023-05-12T15:52:23.111Z,18.63
2023-05-12T15:54:50.235Z,19.46
2023-05-12T15:57:17.526Z,19.78
2023-05-12T15:59:47.913Z,20.11
2023-05-12T16:02:15.870Z,20.60
2023-05-12T16:04:42.946Z,20.98
2023-05-12T16:07:10.246Z,21.42
2023-05-12T16:09:37.461Z,21.34
2023-05-12T16:12:05.923Z,21.68
2023-05-12T16:17:15.636Z,21.92
2023-05-12T16:19:43.998Z,21.83
2023-05-12T16:22:11.231Z,22.13
2023-05-12T16:24:38.366Z,22.25
2023-05-12T16:27:05.736Z,22.47
2023-05-12T16:29:32.760Z,22.82
2023-05-12T16:31:59.840Z,23.10
2023-05-12T16:34:27.578Z,23.64
2023-05-12T16:36:57.624Z,23.77
2023-05-12T16:39:24.748Z,24.05
2023-05-12T16:41:51.809Z,23.97
2023-05-12T16:44:21.900Z,24.28
2023-05-12T16:46:49.866Z,24.27
2023-05-12T16:49:26.502Z,24.82
2023-05-12T16:51:53.563Z,24.74
2023-05-12T16:54:20.693Z,24.50
2023-05-12T16:56:48.592Z,24.18
2023-05-12T16:59:15.962Z,24.12
2023-05-12T17:01:43.122Z,24.56
2023-05-12T17:04:12.537Z,24.85
2023-05-12T17:06:39.688Z,25.25
2023-05-12T17:09:06.649Z,25.13
2023-05-12T17:11:33.678Z,24.80
2023-05-12T17:14:01.116Z,25.07
2023-05-12T17:16:28.799Z,25.19
2023-05-12T17:21:31.960Z,25.57
2023-05-12T17:24:04.070Z,25.55
2023-05-12T17:26:31.528Z,25.71
2023-05-12T17:28:58.513Z,25.72
2023-05-12T17:31:25.659Z,25.98
2023-05-12T17:33:58.284Z,26.64
2023-05-12T17:36:28.425Z,26.13
2023-05-12T17:38:58.197Z,26.27
2023-05-12T17:41:27.053Z,26.61
2023-05-12T17:44:00.891Z,27.09
2023-05-12T17:46:28.186Z,27.00
2023-05-12T17:49:04.378Z,27.03
2023-05-12T17:51:37.386Z,27.67
2023-05-12T17:54:04.369Z,27.61
2023-05-12T17:56:31.552Z,27.74
2023-05-12T17:58:59.185Z,27.92
2023-05-12T18:01:31.835Z,27.56
2023-05-12T18:03:59.007Z,27.83
2023-05-12T18:06:26.395Z,28.01
2023-05-12T18:08:54.012Z,28.38
2023-05-12T18:11:25.558Z,28.79
2023-05-12T18:13:57.228Z,28.87
2023-05-12T18:16:28.917Z,29.18
2023-05-12T18:19:03.585Z,29.20
2023-05-12T18:21:32.810Z,29.17
2023-05-12T18:23:59.942Z,30.14
2023-05-12T18:26:27.721Z,30.39
2023-05-12T18:28:57.742Z,31.06
2023-05-12T18:31:26.919Z,30.79
2023-05-12T18:33:56.685Z,31.59
2023-05-12T18:36:23.836Z,32.61
2023-05-12T18:38:51.075Z,32.80
2023-05-12T18:41:20.604Z,33.12
2023-05-12T18:43:47.582Z,34.30
2023-05-12T18:46:17.570Z,34.65
2023-05-12T18:48:47.086Z,35.16
2023-05-12T18:51:16.559Z,35.16
2023-05-12T18:53:46.669Z,36.05
2023-05-12T18:56:14.297Z,36.31
2023-05-12T18:58:41.582Z,36.68
2023-05-12T19:03:53.053Z,37.39
2023-05-12T19:06:23.333Z,37.96
2023-05-12T19:08:51.822Z,38.47
2023-05-12T19:11:19.245Z,39.11
2023-05-12T19:13:47.645Z,39.00
2023-05-12T19:16:15.156Z,39.45
2023-05-12T19:18:42.421Z,39.71
2023-05-12T19:21:09.668Z,39.91
2023-05-12T19:23:36.946Z,40.80
2023-05-12T19:26:09.126Z,41.01
2023-05-12T19:28:40.975Z,41.52
2023-05-12T19:31:10.231Z,41.93
2023-05-12T19:33:37.813Z,42.33
2023-05-12T19:36:06.847Z,42.46
2023-05-12T19:38:33.899Z,42.61
2023-05-12T19:41:01.001Z,42.80
2023-05-12T19:43:28.217Z,43.06
2023-05-12T19:45:55.468Z,43.40
2023-05-12T19:48:22.588Z,43.74
2023-05-12T19:50:49.596Z,44.24
2023-05-12T19:53:18.794Z,44.52
2023-05-12T19:55:45.888Z,44.60
2023-05-12T19:58:12.889Z,44.70
2023-05-12T20:00:39.941Z,45.07
2023-05-12T20:03:07.537Z,45.27
2023-05-12T20:05:36.757Z,45.42
2023-05-12T20:08:07.438Z,45.62
2023-05-12T20:10:41.578Z,45.51
2023-05-12T20:13:08.639Z,45.78
2023-05-12T20:15:40.062Z,46.07
2023-05-12T20:18:07.390Z,46.58
2023-05-12T20:20:34.580Z,46.74
2023-05-12T20:23:01.549Z,46.79
2023-05-12T20:25:31.589Z,46.87
2023-05-12T20:27:59.343Z,47.64
2023-05-12T20:30:26.910Z,47.61
2023-05-12T20:32:54.018Z,47.67
2023-05-12T20:35:21.614Z,47.93
2023-05-12T20:37:52.004Z,48.07
2023-05-12T20:40:19.838Z,48.26
2023-05-12T20:42:49.526Z,48.73
2023-05-12T20:45:16.582Z,48.69
2023-05-12T20:47:46.099Z,49.11
2023-05-12T20:50:13.308Z,49.22
2023-05-12T20:52:41.095Z,49.41
2023-05-12T20:55:09.730Z,49.58
2023-05-12T20:58:02.697Z,49.38
2023-05-12T21:00:32.512Z,49.53
2023-05-12T21:03:00.264Z,49.72
2023-05-12T21:05:28.071Z,49.97
2023-05-12T21:07:57.524Z,49.94
2023-05-12T21:10:24.516Z,50.29
2023-05-12T21:12:53.733Z,50.29
2023-05-12T21:15:21.220Z,50.56
2023-05-12T21:18:41.031Z,50.59
2023-05-12T21:21:08.463Z,50.67
2023-05-12T21:23:38.940Z,51.04
2023-05-12T21:26:06.433Z,51.25
2023-05-12T21:28:33.583Z,51.44
2023-05-12T21:31:00.703Z,51.54
2023-05-12T21:33:28.101Z,51.72
2023-05-12T21:35:57.863Z,51.94
2023-05-12T21:38:24.935Z,52.27
2023-05-12T21:40:53.299Z,52.37
2023-05-12T21:43:20.599Z,51.72
2023-05-12T21:45:47.841Z,51.61
2023-05-12T21:48:18.874Z,51.89
2023-05-12T21:50:45.986Z,52.34
2023-05-12T21:53:15.563Z,52.52
2023-05-12T21:55:42.813Z,52.92
2023-05-12T21:58:09.817Z,53.35
2023-05-12T22:00:42.155Z,53.46
2023-05-12T22:03:09.384Z,53.75
2023-05-12T22:05:36.703Z,53.76
2023-05-12T22:08:06.505Z,53.90
2023-05-12T22:10:33.608Z,54.01
2023-05-12T22:13:00.759Z,54.35
2023-05-12T22:15:27.895Z,54.44
2023-05-12T22:17:55.131Z,54.24
2023-05-12T22:20:23.264Z,54.28
2023-05-12T22:22:50.387Z,54.77
2023-05-12T22:25:17.620Z,54.67
2023-05-12T22:27:44.974Z,54.67
2023-05-12T22:30:12.419Z,54.89
2023-05-12T22:32:39.675Z,55.56
2023-05-12T22:35:07.463Z,56.22
2023-05-12T22:37:34.508Z,55.42
2023-05-12T22:40:05.078Z,55.75
2023-05-12T22:42:36.112Z,56.10
2023-05-12T22:45:04.883Z,56.10
2023-05-12T22:47:33.052Z,56.65
2023-05-12T22:50:01.402Z,56.69
2023-05-12T22:52:31.059Z,57.18
2023-05-12T22:55:04.324Z,56.15
2023-05-12T22:57:32.181Z,56.46
2023-05-12T22:59:59.120Z,56.28
2023-05-12T23:02:28.622Z,56.39
2023-05-12T23:04:55.829Z,56.89
2023-05-12T23:07:25.117Z,57.23
2023-05-12T23:09:52.172Z,57.79
2023-05-12T23:12:19.229Z,57.50
2023-05-12T23:14:46.310Z,57.60
2023-05-12T23:17:13.262Z,57.54
2023-05-12T23:19:40.311Z,57.12
2023-05-12T23:22:07.443Z,56.50
2023-05-12T23:24:36.179Z,56.28
2023-05-12T23:27:03.581Z,56.38
2023-05-12T23:29:30.895Z,57.00
2023-05-12T23:31:58.951Z,57.59
2023-05-12T23:34:26.265Z,57.90
2023-05-12T23:36:53.241Z,58.01
2023-05-12T23:39:20.658Z,58.12
2023-05-12T23:41:48.946Z,58.27
2023-05-12T23:44:16.147Z,58.02
2023-05-12T23:46:46.634Z,58.00
2023-05-12T23:49:13.626Z,57.87
2023-05-12T23:51:43.603Z,58.18
2023-05-12T23:54:12.319Z,57.79
2023-05-12T23:56:39.354Z,57.69
2023-05-12T23:59:10.324Z,58.26
